createdAt,value
2023-04-05T00:00:00.157Z,966.67
2023-04-05T00:01:00.036Z,966.69
2023-04-05T00:01:59.965Z,966.67
2023-04-05T00:03:00.071Z,966.66
2023-04-05T00:03:59.959Z,966.61
2023-04-05T00:04:59.886Z,966.60
2023-04-05T00:05:59.702Z,966.63
2023-04-05T00:06:59.616Z,966.65
2023-04-05T00:07:59.541Z,966.63
2023-04-05T00:08:59.480Z,966.59
2023-04-05T00:09:59.398Z,966.58
2023-04-05T00:10:59.329Z,966.55
2023-04-05T00:11:59.254Z,966.55
2023-04-05T00:12:59.198Z,966.52
2023-04-05T00:13:59.116Z,966.55
2023-04-05T00:14:59.045Z,966.55
2023-04-05T00:15:59.050Z,966.52
2023-04-05T00:16:58.901Z,966.53
2023-04-05T00:17:58.906Z,966.55
2023-04-05T00:18:58.767Z,966.57
2023-04-05T00:19:58.684Z,966.57
2023-04-05T00:20:58.642Z,966.51
2023-04-05T00:21:58.545Z,966.52
2023-04-05T00:22:58.487Z,966.50
2023-04-05T00:23:58.424Z,966.49
2023-04-05T00:24:58.328Z,966.55
2023-04-05T00:25:58.261Z,966.49
2023-04-05T00:26:58.223Z,966.48
2023-04-05T00:27:58.128Z,966.49
2023-04-05T00:28:58.049Z,966.49
2023-04-05T00:29:57.981Z,966.45
2023-04-05T00:30:57.908Z,966.46
2023-04-05T00:31:57.849Z,966.46
2023-04-05T00:32:57.776Z,966.48
2023-04-05T00:33:57.704Z,966.48
2023-04-05T00:34:57.635Z,966.43
2023-04-05T00:35:57.598Z,966.41
2023-04-05T00:36:57.502Z,966.46
2023-04-05T00:37:57.415Z,966.42
2023-04-05T00:38:57.346Z,966.44
2023-04-05T00:39:57.346Z,966.45
2023-04-05T00:40:57.239Z,966.51
2023-04-05T00:41:57.196Z,966.44
2023-04-05T00:42:57.049Z,966.49
2023-04-05T00:43:57.010Z,966.43
2023-04-05T00:44:56.910Z,966.42
2023-04-05T00:45:56.848Z,966.44
2023-04-05T00:46:56.800Z,966.42
2023-04-05T00:47:56.760Z,966.39
2023-04-05T00:48:56.654Z,966.36
2023-04-05T00:49:56.596Z,966.34
2023-04-05T00:50:56.487Z,966.34
2023-04-05T00:51:56.416Z,966.33
2023-04-05T00:52:56.337Z,966.29
2023-04-05T00:53:56.277Z,966.31
2023-04-05T00:54:56.200Z,966.30
2023-04-05T00:55:56.157Z,966.28
2023-04-05T00:56:56.058Z,966.26
2023-04-05T00:57:56.051Z,966.24
2023-04-05T00:58:55.947Z,966.23
2023-04-05T00:59:55.973Z,966.21
2023-04-05T01:00:55.782Z,966.22
2023-04-05T01:01:55.722Z,966.23
2023-04-05T01:02:55.691Z,966.22
2023-04-05T01:03:55.560Z,966.18
2023-04-05T01:04:55.561Z,966.19
2023-04-05T01:05:55.423Z,966.17
2023-04-05T01:06:55.351Z,966.12
2023-04-05T01:07:55.277Z,966.13
2023-04-05T01:08:55.206Z,966.17
2023-04-05T01:09:55.134Z,966.14
2023-04-05T01:10:55.068Z,966.14
2023-04-05T01:11:54.994Z,966.13
2023-04-05T01:12:54.924Z,966.14
2023-04-05T01:13:54.855Z,966.15
2023-04-05T01:14:54.778Z,966.14
2023-04-05T01:15:54.745Z,966.14
2023-04-05T01:16:54.635Z,966.16
2023-04-05T01:17:54.602Z,966.10
2023-04-05T01:18:54.491Z,966.13
2023-04-05T01:19:54.446Z,966.13
2023-04-05T01:20:54.350Z,966.13
2023-04-05T01:21:54.290Z,966.09
2023-04-05T01:22:54.220Z,966.11
2023-04-05T01:23:54.137Z,966.13
2023-04-05T01:24:54.067Z,966.10
2023-04-05T01:25:53.996Z,966.10
2023-04-05T01:26:53.926Z,966.10
2023-04-05T01:27:53.854Z,966.07
2023-04-05T01:28:53.783Z,966.07
2023-04-05T01:29:53.713Z,966.06
2023-04-05T01:30:53.714Z,966.11
2023-04-05T01:31:53.565Z,966.09
2023-04-05T01:32:53.527Z,966.04
2023-04-05T01:33:53.429Z,966.07
2023-04-05T01:34:53.356Z,966.07
2023-04-05T01:35:53.320Z,966.02
2023-04-05T01:36:53.212Z,966.03
2023-04-05T01:37:53.156Z,966.06
2023-04-05T01:38:53.077Z,966.02
2023-04-05T01:39:53.000Z,966.04
2023-04-05T01:40:52.933Z,966.02
2023-04-05T01:41:52.863Z,966.06
2023-04-05T01:42:52.790Z,966.04
2023-04-05T01:43:52.722Z,966.04
2023-04-05T01:44:52.653Z,965.97
2023-04-05T01:45:52.586Z,965.99
2023-04-05T01:46:52.588Z,965.97
2023-04-05T01:47:52.539Z,965.98
2023-04-05T01:48:52.364Z,965.97
2023-04-05T01:49:52.288Z,965.94
2023-04-05T01:50:52.220Z,965.92
2023-04-05T01:51:52.155Z,965.96
2023-04-05T01:52:52.131Z,965.94
2023-04-05T01:53:52.010Z,965.93
2023-04-05T01:54:51.938Z,965.91
2023-04-05T01:55:51.863Z,965.92
2023-04-05T01:56:51.792Z,965.89
2023-04-05T01:57:51.756Z,965.92
2023-04-05T01:58:51.678Z,965.89
2023-04-05T01:59:51.584Z,965.88
2023-04-05T02:00:51.523Z,965.87
2023-04-05T02:01:51.438Z,965.87
2023-04-05T02:02:51.424Z,965.86
2023-04-05T02:03:51.472Z,965.86
2023-04-05T02:04:51.229Z,965.85
2023-04-05T02:05:51.155Z,965.88
2023-04-05T02:06:51.098Z,965.85
2023-04-05T02:07:51.018Z,965.78
2023-04-05T02:08:50.967Z,965.81
2023-04-05T02:09:50.868Z,965.76
2023-04-05T02:10:50.796Z,965.74
2023-04-05T02:11:50.726Z,965.75
2023-04-05T02:12:50.670Z,965.78
2023-04-05T02:13:50.586Z,965.74
2023-04-05T02:14:50.516Z,965.77
2023-04-05T02:15:50.440Z,965.74
2023-04-05T02:16:50.372Z,965.75
2023-04-05T02:17:50.354Z,965.72
2023-04-05T02:18:50.236Z,965.71
2023-04-05T02:19:50.167Z,965.69
2023-04-05T02:20:50.087Z,965.66
2023-04-05T02:21:52.253Z,965.68
2023-04-05T02:22:49.951Z,965.67
2023-04-05T02:23:49.882Z,965.65
2023-04-05T02:24:49.805Z,965.67
2023-04-05T02:25:49.729Z,965.66
2023-04-05T02:26:49.663Z,965.69
2023-04-05T02:27:49.589Z,965.67
2023-04-05T02:28:49.524Z,965.65
2023-04-05T02:29:49.451Z,965.67
2023-04-05T02:30:49.375Z,965.62
2023-04-05T02:31:49.393Z,965.58
2023-04-05T02:32:49.269Z,965.60
2023-04-05T02:33:49.164Z,965.58
2023-04-05T02:34:49.104Z,965.56
2023-04-05T02:35:49.042Z,965.58
2023-04-05T02:36:48.951Z,965.57
2023-04-05T02:37:48.878Z,965.57
2023-04-05T02:38:48.809Z,965.54
2023-04-05T02:39:48.770Z,965.56
2023-04-05T02:40:48.663Z,965.56
2023-04-05T02:41:48.597Z,965.54
2023-04-05T02:42:48.524Z,965.52
2023-04-05T02:43:48.448Z,965.50
2023-04-05T02:44:48.377Z,965.48
2023-04-05T02:45:48.335Z,965.48
2023-04-05T02:46:48.238Z,965.49
2023-04-05T02:47:48.229Z,965.50
2023-04-05T02:48:48.092Z,965.50
2023-04-05T02:49:48.026Z,965.49
2023-04-05T02:50:47.951Z,965.50
2023-04-05T02:51:47.886Z,965.48
2023-04-05T02:52:47.812Z,965.50
2023-04-05T02:53:47.749Z,965.47
2023-04-05T02:54:47.666Z,965.48
2023-04-05T02:55:47.596Z,965.47
2023-04-05T02:56:47.520Z,965.45
2023-04-05T02:57:47.516Z,965.48
2023-04-05T02:58:47.429Z,965.41
2023-04-05T02:59:47.310Z,965.44
2023-04-05T03:00:47.235Z,965.46
2023-04-05T03:01:47.197Z,965.43
2023-04-05T03:02:47.162Z,965.39
2023-04-05T03:03:47.058Z,965.41
2023-04-05T03:04:46.950Z,965.40
2023-04-05T03:05:46.877Z,965.38
2023-04-05T03:06:46.808Z,965.38
2023-04-05T03:07:46.733Z,965.39
2023-04-05T03:08:46.673Z,965.40
2023-04-05T03:09:46.589Z,965.36
2023-04-05T03:10:46.523Z,965.37
2023-04-05T03:11:46.456Z,965.35
2023-04-05T03:12:46.380Z,965.35
2023-04-05T03:13:46.308Z,965.32
2023-04-05T03:14:46.240Z,965.34
2023-04-05T03:15:46.162Z,965.28
2023-04-05T03:16:46.104Z,965.30
2023-04-05T03:17:46.085Z,965.28
2023-04-05T03:18:45.947Z,965.30
2023-04-05T03:19:45.919Z,965.26
2023-04-05T03:20:45.919Z,965.28
2023-04-05T03:21:45.731Z,965.25
2023-04-05T03:22:45.667Z,965.26
2023-04-05T03:23:45.599Z,965.27
2023-04-05T03:24:45.558Z,965.24
2023-04-05T03:25:45.453Z,965.25
2023-04-05T03:26:45.377Z,965.27
2023-04-05T03:27:45.311Z,965.24
2023-04-05T03:28:45.321Z,965.25
2023-04-05T03:29:45.164Z,965.25
2023-04-05T03:30:45.099Z,965.28
2023-04-05T03:31:45.121Z,965.27
2023-04-05T03:32:44.989Z,965.26
2023-04-05T03:33:44.886Z,965.23
2023-04-05T03:34:44.804Z,965.22
2023-04-05T03:35:44.748Z,965.23
2023-04-05T03:36:44.691Z,965.23
2023-04-05T03:37:44.589Z,965.21
2023-04-05T03:38:44.520Z,965.20
2023-04-05T03:39:44.461Z,965.28
2023-04-05T03:40:44.379Z,965.23
2023-04-05T03:41:44.306Z,965.23
2023-04-05T03:42:44.240Z,965.22
2023-04-05T03:43:44.160Z,965.21
2023-04-05T03:44:44.094Z,965.24
2023-04-05T03:45:44.022Z,965.24
2023-04-05T03:46:43.949Z,965.24
2023-04-05T03:47:43.903Z,965.25
2023-04-05T03:48:43.806Z,965.31
2023-04-05T03:49:43.734Z,965.28
2023-04-05T03:50:43.667Z,965.25
2023-04-05T03:51:43.596Z,965.25
2023-04-05T03:52:43.524Z,965.28
2023-04-05T03:53:43.476Z,965.25
2023-04-05T03:54:43.376Z,965.28
2023-04-05T03:55:43.326Z,965.29
2023-04-05T03:56:43.232Z,965.31
2023-04-05T03:57:43.193Z,965.30
2023-04-05T03:58:43.087Z,965.32
2023-04-05T03:59:43.018Z,965.24
2023-04-05T04:00:42.947Z,965.23
2023-04-05T04:01:42.885Z,965.26
2023-04-05T04:02:42.812Z,965.23
2023-04-05T04:03:42.730Z,965.25
2023-04-05T09:58:36.378Z,965.85
2023-04-05T09:59:35.720Z,965.81
2023-04-05T10:45:49.435Z,965.70
2023-04-05T10:46:48.403Z,965.74
2023-04-05T10:56:20.795Z,965.64
2023-04-05T10:57:20.196Z,965.61
2023-04-05T11:06:53.847Z,965.57
2023-04-05T11:07:53.434Z,965.53
2023-04-05T11:46:26.292Z,965.34
2023-04-05T11:47:26.014Z,965.28
2023-04-05T12:21:20.471Z,965.10
2023-04-05T12:22:21.150Z,965.05
2023-04-05T12:23:21.867Z,965.01
2023-04-05T12:24:20.404Z,965.02
2023-04-05T12:25:21.474Z,965.06
2023-04-05T12:26:20.330Z,965.01
2023-04-05T12:27:19.297Z,965.04
2023-04-05T12:28:19.203Z,965.01
2023-04-05T12:29:19.140Z,964.99
2023-04-05T12:30:19.182Z,965.01
2023-04-05T12:31:19.005Z,964.94
2023-04-05T12:32:19.523Z,964.91
2023-04-05T12:33:18.870Z,964.93
2023-04-05T12:34:18.817Z,964.92
2023-04-05T12:35:18.732Z,964.97
2023-04-05T12:36:18.706Z,964.93
2023-04-05T12:37:18.624Z,964.97
2023-04-05T12:38:18.536Z,964.93
2023-04-05T12:39:18.468Z,964.92
2023-04-05T12:40:18.395Z,964.86
2023-04-05T12:41:18.331Z,964.84
2023-04-05T12:42:18.264Z,964.90
2023-04-05T12:43:18.192Z,964.87
2023-04-05T12:44:18.141Z,964.88
2023-04-05T12:45:18.067Z,964.88
2023-04-05T12:46:18.112Z,964.85
2023-04-05T12:47:17.946Z,964.88
2023-04-05T12:48:17.928Z,964.90
2023-04-05T12:49:17.822Z,964.81
2023-04-05T12:50:17.722Z,964.92
2023-04-05T12:51:17.682Z,964.85
2023-04-05T12:52:17.596Z,964.82
2023-04-05T12:53:17.522Z,964.85
2023-04-05T12:54:17.453Z,964.81
2023-04-05T12:55:17.392Z,964.83
2023-04-05T12:56:17.341Z,964.82
2023-04-05T12:57:17.271Z,964.82
2023-04-05T12:58:17.185Z,964.86
2023-04-05T12:59:17.176Z,964.79
2023-04-05T13:00:17.052Z,964.81
2023-04-05T13:01:17.029Z,964.83
2023-04-05T13:02:16.975Z,964.88
2023-04-05T13:03:16.959Z,964.86
2023-04-05T13:04:17.152Z,964.88
2023-04-05T13:05:16.715Z,964.86
2023-04-05T13:06:16.651Z,964.79
2023-04-05T13:07:16.599Z,964.79
2023-04-05T13:08:16.516Z,964.77
2023-04-05T13:09:16.487Z,964.72
2023-04-05T13:10:16.395Z,964.69
2023-04-05T13:11:16.322Z,964.73
2023-04-05T13:12:16.250Z,964.71
2023-04-05T13:13:16.195Z,964.74
2023-04-05T13:14:16.105Z,964.74
2023-04-05T13:15:16.092Z,964.72
2023-04-05T13:16:16.023Z,964.73
2023-04-05T13:17:15.911Z,964.75
2023-04-05T13:18:15.847Z,964.66
2023-04-05T13:19:15.809Z,964.68
2023-04-05T13:20:15.716Z,964.68
2023-04-05T13:21:15.639Z,964.72
2023-04-05T13:22:15.580Z,964.70
2023-04-05T13:23:15.504Z,964.71
2023-04-05T13:24:15.462Z,964.72
2023-04-05T13:25:15.370Z,964.70
2023-04-05T13:26:15.309Z,964.73
2023-04-05T13:27:15.239Z,964.71
2023-04-05T13:28:15.169Z,964.68
2023-04-05T13:29:15.097Z,964.66
2023-04-05T13:30:15.075Z,964.67
2023-04-05T13:31:15.945Z,964.64
2023-04-05T13:32:14.898Z,964.62
2023-04-05T13:33:14.836Z,964.57
2023-04-05T13:34:14.784Z,964.54
2023-04-05T13:35:14.702Z,964.55
2023-04-05T13:36:14.716Z,964.53
2023-04-05T13:37:14.589Z,964.57
2023-04-05T13:38:14.503Z,964.52
2023-04-05T13:39:14.425Z,964.53
2023-04-05T13:40:14.360Z,964.50
2023-04-05T13:41:14.298Z,964.50
2023-04-05T13:42:14.227Z,964.45
2023-04-05T13:43:14.155Z,964.42
2023-04-05T13:44:14.093Z,964.42
2023-04-05T13:45:14.030Z,964.38
2023-04-05T13:46:14.020Z,964.40
2023-04-05T13:47:13.893Z,964.45
2023-04-05T13:48:13.840Z,964.41
2023-04-05T13:49:13.766Z,964.32
2023-04-05T13:50:13.683Z,964.42
2023-04-05T13:51:13.618Z,964.33
2023-04-05T13:52:13.551Z,964.34
2023-04-05T13:53:13.484Z,964.33
2023-04-05T13:54:13.417Z,964.36
2023-04-05T13:55:13.351Z,964.37
2023-04-05T13:56:13.326Z,964.30
2023-04-05T13:57:13.266Z,964.34
2023-04-05T13:58:13.156Z,964.32
2023-04-05T13:59:13.145Z,964.31
2023-04-05T14:00:13.231Z,964.36
2023-04-05T14:01:12.976Z,964.31
2023-04-05T14:02:12.882Z,964.34
2023-04-05T14:16:48.604Z,964.27
2023-04-05T14:17:48.419Z,964.14
2023-04-05T14:24:19.066Z,964.25
2023-04-05T14:25:18.749Z,964.25
2023-04-05T16:49:16.910Z,964.08
2023-04-05T16:50:16.788Z,964.05
